FIMP/MRU METAR and TAF weather

Enter ICAO airport designator
Station Type Date Time Source
FIMP METAR 2020/09/28 10:00 UTC NOAA

FIMP 281000Z 06013KT 9999 FEW019 26/20 Q1019


Station Type Date Time Source
FIMP Decoded METAR 2020/09/28 10:00 UTC NOAA

Plaisance Mauritius , Mauritius (FIMP) 20-26S 057-40E 57M
Sep 28, 2020 - 06:00 AM EDT / 2020.09.28 1000 UTC
Wind: from the ENE (060 degrees) at 15 MPH (13 KT):0
Visibility: greater than 7 mile(s):0
Sky conditions: mostly clear
Temperature: 78 F (26 C)
Dew Point: 68 F (20 C)
Relative Humidity: 69%
Pressure (altimeter): 30.09 in. Hg (1019 hPa)
ob: FIMP 281000Z 06013KT 9999 FEW019 26/20 Q1019
cycle: 10

Station Type Date Time Source
FIMP TAF 2020/09/28 06:21 UTC NOAA

TAF TAF FIMP 280505Z 2806/2912 07010KT 9999 SCT015
TEMPO 2818/2900 7000 -SHRA BKN015
TEMPO 2906/2912 5000 -SHRA BKN013

Example: see airport list